createdAt,value
2023-03-30T00:04:23.699Z,953.24
2023-03-30T00:19:25.516Z,953.07
2023-03-30T00:34:27.151Z,952.96
2023-03-30T00:49:28.876Z,952.82
2023-03-30T01:04:30.514Z,952.84
2023-03-30T01:19:32.175Z,952.87
2023-03-30T01:34:33.834Z,952.89
2023-03-30T01:49:35.478Z,952.87
2023-03-30T02:04:37.133Z,952.86
2023-03-30T02:19:38.767Z,952.86
2023-03-30T02:34:40.423Z,952.91
2023-03-30T02:49:42.084Z,953.1
2023-03-30T03:04:43.781Z,953.15
2023-03-30T03:19:45.675Z,953.35
2023-03-30T03:34:47.326Z,953.58
2023-03-30T03:49:48.988Z,953.73
2023-03-30T04:04:50.767Z,953.84
2023-03-30T04:19:52.471Z,954.06
2023-03-30T04:34:54.124Z,954.17
2023-03-30T04:49:56.004Z,954.27
2023-03-30T05:04:57.678Z,954.25
2023-03-30T05:19:59.472Z,954.25
2023-03-30T05:35:01.119Z,954.33
2023-03-30T05:50:02.783Z,954.37
2023-03-30T06:05:04.675Z,954.5
2023-03-30T06:20:06.414Z,954.53
2023-03-30T06:35:08.102Z,954.58
2023-03-30T06:50:09.779Z,954.65
2023-03-30T07:05:11.444Z,954.73
2023-03-30T07:20:13.084Z,954.84
2023-03-30T07:35:14.742Z,954.8
2023-03-30T07:50:16.570Z,954.95
2023-03-30T08:05:18.345Z,954.88
2023-03-30T08:20:20.044Z,954.94
2023-03-30T08:35:21.799Z,954.91
2023-03-30T08:50:23.507Z,954.92
2023-03-30T09:05:25.278Z,954.84
2023-03-30T09:20:27.028Z,954.9
2023-03-30T09:35:28.689Z,954.99
2023-03-30T09:50:30.333Z,954.93
2023-03-30T10:05:31.984Z,954.95
2023-03-30T10:20:33.618Z,954.92
2023-03-30T10:35:35.324Z,954.99
2023-03-30T10:50:37.009Z,954.93
2023-03-30T11:05:38.802Z,955.05
2023-03-30T11:20:40.453Z,954.98
2023-03-30T11:35:42.231Z,955.01
2023-03-30T11:50:45.797Z,954.95
2023-03-30T12:05:47.577Z,954.95
2023-03-30T12:20:49.235Z,954.95
2023-03-30T12:35:50.931Z,954.99
2023-03-30T12:50:52.695Z,955.08
2023-03-30T13:05:54.388Z,955.01
2023-03-30T13:20:56.256Z,955.08
2023-03-30T13:35:57.973Z,955.18
2023-03-30T13:50:59.627Z,955.18
2023-03-30T14:06:01.265Z,955.25
2023-03-30T14:21:03.125Z,955.4
2023-03-30T14:36:05.133Z,955.47
2023-03-30T14:51:07.004Z,955.4
2023-03-30T15:06:08.650Z,955.42
2023-03-30T15:21:10.292Z,955.34
2023-03-30T15:36:11.978Z,955.28
2023-03-30T15:51:13.781Z,955.29
2023-03-30T16:06:15.444Z,955.21
2023-03-30T16:21:17.069Z,954.99
2023-03-30T16:36:18.673Z,954.85
2023-03-30T16:51:20.332Z,954.61
2023-03-30T17:06:21.981Z,954.34
2023-03-30T17:21:23.612Z,954.14
2023-03-30T17:36:25.281Z,953.82
2023-03-30T17:51:26.941Z,953.61
2023-03-30T18:06:28.590Z,953.42
2023-03-30T18:21:30.226Z,953.3
2023-03-30T18:36:31.858Z,953.18
2023-03-30T18:51:33.486Z,953.08
2023-03-30T19:06:35.121Z,952.92
2023-03-30T19:21:37.043Z,952.77
2023-03-30T19:36:38.733Z,952.56
2023-03-30T19:51:40.326Z,952.35
2023-03-30T20:06:41.925Z,952.17
2023-03-30T20:21:43.602Z,951.95
2023-03-30T20:36:45.247Z,951.73
2023-03-30T20:51:46.891Z,951.55
2023-03-30T21:06:48.566Z,951.26
2023-03-30T21:21:50.189Z,951.09
2023-03-30T21:36:52.064Z,950.96
2023-03-30T21:51:53.790Z,950.86
2023-03-30T22:06:55.421Z,950.71
2023-03-30T22:21:57.044Z,950.52
2023-03-30T22:36:58.689Z,950.42
2023-03-30T22:52:00.322Z,950.26
2023-03-30T23:07:01.942Z,950.17
2023-03-30T23:22:03.595Z,950.09
2023-03-30T23:37:05.270Z,950.12
2023-03-30T23:52:06.947Z,950.05
